Казань

Карта отелей и гостиниц, располагающихся рядом с аэропортом Казань :

Казань Татарстан 55° 36' 31.0788" N, 49° 16' 44.6988" E
Код аэродрома ИКАО: 
UWKD
Код аэродрома RU: 
УВКД
Координаты: 
N55.60863° E049.27908°
Превышение над уровнем моря : 
126
Основная полоса: 
11R/29L
Курс магнитный: 
111,7/291,7
Длина основной ВПП: 
3760
Ширина основной ВПП: 
50
Покрытие основной ВПП: 
Твёрдое
Тип: 
Аэродром
Освещение ВПП: 
Нет
Класс аэродрома: 
Международный
Статус: 
Действующий
Принадлежность: 
ГА
Сайт: 
www.kazan.aero
Страна: 
Россия
Регион: 
Татарстан
Дополнительная информация: 
Оператор: ОАО «Международный аэропорт «Казань». Нкр.=(500)м. ИВПП-11L/29R не функционирует.
Схемы аэропортов: 
Погода: 

Авиационная погода в Казани

Регион: 
Погода METAR: 
UWKD 110330Z 34004MPS CAVOK 13/09 Q1011 R29/CLRD70 NOSIG RMK QFE747/0997
Время наблюдения: 
2020-08-11T03:30:00Z
Температура C: 
13.0
Точка росы: 
9.0
Направление ветра: 
340
Скорость ветра: 
8
Метеорологическая видимость: 
6.21
Условия полета: 
VFR
Аэропорт подробнее: 

Найти трансфер

С помощью этой формы Вы можете найти трансфер из аэропорта Казань в город, аэропорт или вокзал:

Карта места

Javascript is required to view this map.

Погода в аэропортах:

Авиационная погода в Сочи

Регион: 
Погода METAR: 
URSS 110330Z 06003MPS 9999 VCTS BKN040CB 21/19 Q1008 WS ALL RWY R02/290257 R06/290361 NOSIG RMK R06/07004MPS MT OBSC QFE754
Время наблюдения: 
2020-08-11T03:30:00Z
Температура C: 
21.0
Точка росы: 
19.0
Направление ветра: 
60
Скорость ветра: 
6
Метеорологическая видимость: 
6.21
Явления погоды: 
VCTS
Условия полета: 
VFR
Аэропорт подробнее: 

Авиационная погода в Ботсфьорде

Регион: 
Погода METAR: 
ENBS 101820Z 34014KT 9999 VCSH SCT010 SCT016 BKN030 09/07 Q1023
Время наблюдения: 
2020-08-10T18:20:00Z
Температура C: 
9.0
Точка росы: 
7.0
Направление ветра: 
340
Скорость ветра: 
14
Метеорологическая видимость: 
6.21
Явления погоды: 
VCSH
Условия полета: 
MVFR

Авиационная погода в аэропорту Бесовец

Регион: 
Погода METAR: 
ULPB 110400Z AUTO 33006MPS 300V360 3100 -DZ 11/10 Q1014 RMK QBB180 QFE757/1009
Время наблюдения: 
2020-08-11T04:00:00Z
Температура C: 
11.0
Точка росы: 
10.0
Направление ветра: 
330
Скорость ветра: 
12
Метеорологическая видимость: 
1.93
Явления погоды: 
-DZ
Аэропорт подробнее: 

Авиационная погода в аэропорту Семей

Регион: 
Погода METAR: 
UASS 110325Z 32002MPS 270V030 9999 -SHRA BKN043CB 24/14 Q1000 R08/0///60 NOSIG RMK QFE730/0973
Время наблюдения: 
2020-08-11T03:25:00Z
Температура C: 
24.0
Точка росы: 
14.0
Направление ветра: 
320
Скорость ветра: 
4
Метеорологическая видимость: 
6.21
Явления погоды: 
-SHRA
Условия полета: 
VFR
Аэропорт подробнее: